^^
nws-alerts.php - 1.15 - 19-Aug-2013 - NWS Public Alerts
Station Historical Data
 
Daily Summary for August 17, 2018 Units:  English    Metric   Both
« Previous Day
Next Day »
Daily Weekly Monthly Yearly Custom
  Current: High: Low: Average:
Temperature: 80.5 °F 92.2 °F 72.5 °F 81.8 °F
Dew Point: 75.6 °F 79.7 °F 70.7 °F 75.2 °F
Humidity: 85% 96% 62% 82%
Wind Speed: 0mph 10.3mph 0mph 2.3mph
Wind Gust: 0mph 19.6mph - -
WindCalm - - SE
Pressure: 30.11 in 30.19 in 30.09 in -
Precipitation: 0.044 in      
Historical Graphs
 
 
Tabular Data for August 17, 2018
Time Temperature Dew Point Pressure Wind Wind Speed Wind Gust Humidity Rainfall Rate (Hourly) Conditions
00:04 78.4 °F 72.4 °F 30.18 in WSW 4.6 mph 6.9 mph 82% 0 in 0.00 W/m2
00:09 78.1 °F 72.5 °F 30.19 in SW 3.2 mph 5.8 mph 83% 0 in 0.00 W/m2
00:14 77.8 °F 72.6 °F 30.19 in WSW 2.3 mph 4.4 mph 84% 0 in 0.00 W/m2
00:19 77.4 °F 72.2 °F 30.19 in WSW 1.9 mph 2.3 mph 84% 0 in 0.00 W/m2
00:24 77.2 °F 72 °F 30.19 in SSW 0.4 mph 2.2 mph 84% 0 in 0.00 W/m2
00:29 77 °F 71.8 °F 30.18 in Calm     84% 0 in 0.00 W/m2
00:34 76.7 °F 71.5 °F 30.18 in Calm     84% 0 in 0.00 W/m2
00:39 76.4 °F 71.9 °F 30.18 in Calm     86% 0 in 0.00 W/m2
00:44 75.8 °F 71.3 °F 30.18 in Calm     86% 0 in 0.00 W/m2
00:49 75.5 °F 71.4 °F 30.18 in Calm     87% 0 in 0.00 W/m2
00:54 75.3 °F 71.5 °F 30.17 in Calm     88% 0 in 0.00 W/m2
00:59 75 °F 71.5 °F 30.17 in Calm     89% 0 in 0.00 W/m2
01:04 74.8 °F 71.3 °F 30.17 in Calm     89% 0 in 0.00 W/m2
01:09 74.7 °F 71.6 °F 30.16 in Calm     90% 0 in 0.00 W/m2
01:14 74.4 °F 71.3 °F 30.16 in Calm     90% 0 in 0.00 W/m2
01:19 74.4 °F 71.6 °F 30.16 in Calm     91% 0 in 0.00 W/m2
01:24 74.2 °F 71.4 °F 30.16 in Calm     91% 0 in 0.00 W/m2
01:29 74.1 °F 71.3 °F 30.15 in Calm     91% 0 in 0.00 W/m2
01:34 74.2 °F 71.4 °F 30.15 in Calm     91% 0 in 0.00 W/m2
01:39 74.5 °F 71.7 °F 30.15 in Calm     91% 0 in 0.00 W/m2
01:44 74.6 °F 71.5 °F 30.15 in Calm     90% 0 in 0.00 W/m2
01:49 74.5 °F 71.7 °F 30.15 in Calm     91% 0 in 0.00 W/m2
01:54 74.3 °F 71.5 °F 30.15 in Calm     91% 0 in 0.00 W/m2
01:59 74 °F 71.2 °F 30.15 in Calm     91% 0 in 0.00 W/m2
02:04 73.9 °F 71.1 °F 30.15 in Calm     91% 0 in 0.00 W/m2
02:09 73.7 °F 71.2 °F 30.15 in Calm     92% 0 in 0.00 W/m2
02:14 73.7 °F 71.2 °F 30.15 in Calm     92% 0 in 0.00 W/m2
02:19 73.5 °F 71 °F 30.15 in Calm     92% 0 in 0.00 W/m2
02:24 73.5 °F 71 °F 30.15 in Calm     92% 0 in 0.00 W/m2
02:29 73.4 °F 70.9 °F 30.15 in Calm     92% 0 in 0.00 W/m2
02:34 73.3 °F 71.2 °F 30.15 in Calm     93% 0 in 0.00 W/m2
02:39 73.4 °F 71.3 °F 30.15 in Calm     93% 0 in 0.00 W/m2
02:44 73.4 °F 71.3 °F 30.14 in Calm     93% 0 in 0.00 W/m2
02:49 73.5 °F 71.4 °F 30.14 in Calm     93% 0 in 0.00 W/m2
02:54 73.7 °F 71.5 °F 30.14 in Calm     93% 0 in 0.00 W/m2
02:59 73.9 °F 71.7 °F 30.14 in Calm     93% 0 in 0.00 W/m2
03:04 73.7 °F 71.5 °F 30.14 in Calm     93% 0 in 0.00 W/m2
03:09 73.5 °F 71.4 °F 30.13 in Calm     93% 0 in 0.00 W/m2
03:14 73.4 °F 71.3 °F 30.13 in Calm     93% 0 in 0.00 W/m2
03:19 73.2 °F 71.1 °F 30.13 in Calm     93% 0 in 0.00 W/m2
03:24 73.2 °F 71.4 °F 30.13 in Calm     94% 0 in 0.00 W/m2
03:29 73.1 °F 71 °F 30.12 in Calm     93% 0 in 0.00 W/m2
03:34 73.1 °F 71.3 °F 30.12 in Calm     94% 0 in 0.00 W/m2
03:39 73.1 °F 71.3 °F 30.12 in Calm     94% 0 in 0.00 W/m2
03:44 73.1 °F 71.3 °F 30.12 in Calm     94% 0 in 0.00 W/m2
03:49 73.1 °F 71.3 °F 30.12 in Calm     94% 0 in 0.00 W/m2
03:54 72.9 °F 71.1 °F 30.12 in Calm     94% 0 in 0.00 W/m2
03:59 72.8 °F 71 °F 30.12 in Calm     94% 0 in 0.00 W/m2
04:04 72.8 °F 71 °F 30.12 in Calm     94% 0 in 0.00 W/m2
04:09 72.7 °F 70.9 °F 30.12 in Calm     94% 0 in 0.00 W/m2
04:14 72.6 °F 70.8 °F 30.12 in Calm     94% 0 in 0.00 W/m2
04:19 72.5 °F 70.7 °F 30.12 in Calm     94% 0 in 0.00 W/m2
04:24 72.5 °F 70.7 °F 30.12 in Calm     94% 0 in 0.00 W/m2
04:29 72.6 °F 70.8 °F 30.12 in Calm     94% 0 in 0.00 W/m2
04:34 72.5 °F 70.7 °F 30.11 in Calm     94% 0 in 0.00 W/m2
04:39 72.6 °F 70.8 °F 30.11 in Calm     94% 0 in 0.00 W/m2
04:44 72.6 °F 71.1 °F 30.11 in Calm     95% 0 in 0.00 W/m2
04:49 72.7 °F 70.9 °F 30.11 in Calm     94% 0 in 0.00 W/m2
04:54 72.8 °F 71.3 °F 30.12 in Calm     95% 0 in 0.00 W/m2
04:59 72.9 °F 71.1 °F 30.12 in Calm     94% 0 in 0.00 W/m2
05:04 72.9 °F 71.4 °F 30.11 in Calm     95% 0 in 0.00 W/m2
05:09 73 °F 71.2 °F 30.11 in Calm     94% 0 in 0.00 W/m2
05:14 72.9 °F 71.1 °F 30.11 in Calm     94% 0 in 0.00 W/m2
05:19 73 °F 71.5 °F 30.11 in Calm     95% 0 in 0.00 W/m2
05:24 73 °F 71.5 °F 30.11 in Calm     95% 0 in 0.00 W/m2
05:29 72.9 °F 71.1 °F 30.11 in Calm     94% 0 in 0.00 W/m2
05:34 72.9 °F 71.1 °F 30.12 in Calm     94% 0 in 0.00 W/m2
05:39 72.7 °F 70.9 °F 30.12 in Calm     94% 0 in 0.00 W/m2
05:44 72.8 °F 71.3 °F 30.12 in Calm     95% 0 in 0.00 W/m2
05:49 72.8 °F 71.3 °F 30.12 in Calm     95% 0 in 0.00 W/m2
05:54 73 °F 71.5 °F 30.11 in Calm     95% 0 in 0.00 W/m2
05:59 73.1 °F 71.6 °F 30.12 in Calm     95% 0 in 0.00 W/m2
06:04 73.2 °F 71.7 °F 30.12 in Calm     95% 0 in 0.00 W/m2
06:09 73.1 °F 71.6 °F 30.12 in Calm     95% 0 in 0.00 W/m2
06:14 73.2 °F 71.7 °F 30.12 in Calm     95% 0 in 0.00 W/m2
06:19 73.6 °F 72.4 °F 30.12 in Calm     96% 0 in 0.00 W/m2
06:24 73.8 °F 72.3 °F 30.12 in Calm     95% 0 in 0.00 W/m2
06:29 73.9 °F 72.4 °F 30.12 in Calm     95% 0 in 0.00 W/m2
06:34 73.8 °F 72.3 °F 30.13 in Calm     95% 0 in 0.00 W/m2
06:39 74 °F 72.5 °F 30.13 in Calm     95% 0 in 0.00 W/m2
06:44 73.9 °F 72.4 °F 30.13 in Calm     95% 0 in 0.00 W/m2
06:49 74 °F 72.5 °F 30.13 in Calm     95% 0 in 0.00 W/m2
06:54 74.3 °F 73.1 °F 30.13 in Calm   1.2 mph 96% 0 in 0.00 W/m2
06:59 74.5 °F 73 °F 30.14 in Calm     95% 0 in 0.00 W/m2
07:04 74.6 °F 73.1 °F 30.14 in Calm     95% 0 in 0.00 W/m2
07:09 74.7 °F 73.2 °F 30.14 in Calm     95% 0 in 0.00 W/m2
07:14 74.6 °F 73.1 °F 30.14 in Calm     95% 0 in 0.00 W/m2
07:19 75 °F 73.5 °F 30.14 in Calm     95% 0 in 0.00 W/m2
07:24 75.2 °F 73.7 °F 30.14 in Calm     95% 0 in 0.00 W/m2
07:29 75.4 °F 73.9 °F 30.14 in ENE 0.4 mph   95% 0 in 0.00 W/m2
07:34 75.8 °F 74.3 °F 30.14 in Calm     95% 0 in 0.00 W/m2
07:39 76.2 °F 74.7 °F 30.14 in NE 1.2 mph 2.2 mph 95% 0 in 0.00 W/m2
07:44 76.6 °F 75.1 °F 30.14 in ENE 0.1 mph 1.1 mph 95% 0 in 0.00 W/m2
07:49 77 °F 75.1 °F 30.14 in Calm     94% 0 in 0.00 W/m2
07:54 77.5 °F 75.6 °F 30.14 in Calm     94% 0 in 0.00 W/m2
07:59 78.1 °F 76.2 °F 30.14 in Calm     94% 0 in 0.00 W/m2
08:04 78.5 °F 76.3 °F 30.14 in NNE 1.1 mph 3.3 mph 93% 0 in 0.00 W/m2
08:09 78.5 °F 76 °F 30.14 in NE 2.8 mph 3.5 mph 92% 0 in 0.00 W/m2
08:14 79 °F 76.5 °F 30.14 in ENE 1.7 mph 2.3 mph 92% 0 in 0.00 W/m2
08:19 79.3 °F 76.8 °F 30.14 in ENE 2.3 mph 3.5 mph 92% 0 in 0.00 W/m2
08:24 79.7 °F 76.8 °F 30.15 in ENE 1.8 mph 2.3 mph 91% 0 in 0.00 W/m2
08:29 80.1 °F 76.9 °F 30.15 in ENE 1.7 mph 2.3 mph 90% 0 in 0.00 W/m2
08:34 80.5 °F 77.3 °F 30.15 in East 2.5 mph 3.5 mph 90% 0 in 0.00 W/m2
08:39 80.8 °F 77.3 °F 30.15 in East 3.4 mph 4.6 mph 89% 0 in 0.00 W/m2
08:44 81.3 °F 77.4 °F 30.15 in East 4 mph 4.6 mph 88% 0 in 0.00 W/m2
08:49 81.7 °F 78.1 °F 30.15 in East 1.3 mph 3.5 mph 89% 0 in 0.00 W/m2
08:54 82.1 °F 77.8 °F 30.15 in ENE 4.3 mph 5.8 mph 87% 0 in 0.00 W/m2
08:59 82.4 °F 78.1 °F 30.16 in East 3.3 mph 5.8 mph 87% 0 in 0.00 W/m2
09:04 82.7 °F 78.1 °F 30.16 in ENE 3.1 mph 5.8 mph 86% 0 in 0.00 W/m2
09:09 83.3 °F 78.7 °F 30.16 in NE 2.5 mph 4.4 mph 86% 0 in 0.00 W/m2
09:14 83.6 °F 78.6 °F 30.16 in ENE 1.8 mph 6.9 mph 85% 0 in 0.00 W/m2
09:19 83.9 °F 78.5 °F 30.16 in ENE 5.2 mph 6.9 mph 84% 0 in 0.00 W/m2
09:24 83.9 °F 78.2 °F 30.16 in ENE 4.1 mph 5.8 mph 83% 0 in 0.00 W/m2
09:29 84.6 °F 79.2 °F 30.16 in East 2.1 mph 5.5 mph 84% 0 in 0.00 W/m2
09:34 84.7 °F 79 °F 30.16 in East 5.9 mph 6.9 mph 83% 0 in 0.00 W/m2
09:39 84.6 °F 78.5 °F 30.16 in ENE 6.8 mph 6.9 mph 82% 0 in 194.20 W/m2
09:44 85 °F 78.9 °F 30.16 in SSE 4.4 mph 5.8 mph 82% 0 in 0.00 W/m2
09:49 85.3 °F 78.8 °F 30.17 in ENE 5.1 mph 8.1 mph 81% 0 in 0.00 W/m2
09:54 85.3 °F 79.2 °F 30.16 in NNE 4.2 mph 6.6 mph 82% 0 in 0.00 W/m2
09:59 85.7 °F 79.2 °F 30.16 in SSE 2.6 mph 4.6 mph 81% 0 in 0.00 W/m2
10:04 86.4 °F 79.1 °F 30.16 in East 3.1 mph 5.8 mph 79% 0 in 0.00 W/m2
10:09 86.6 °F 79.7 °F 30.17 in ESE 4.3 mph 5.8 mph 80% 0 in 0.00 W/m2
10:14 86.8 °F 79.1 °F 30.17 in ESE 4.9 mph 8.8 mph 78% 0 in 0.00 W/m2
10:19 86.7 °F 79 °F 30.17 in NE 4.9 mph 9.2 mph 78% 0 in 0.00 W/m2
10:24 86.5 °F 78.4 °F 30.17 in SE 5 mph 6.9 mph 77% 0 in 0.00 W/m2
10:29 86.8 °F 79.5 °F 30.17 in SE 4.3 mph 6.9 mph 79% 0 in 0.00 W/m2
10:34 87.4 °F 79.3 °F 30.17 in ESE 5.8 mph 9.2 mph 77% 0 in 0.00 W/m2
10:39 87 °F 78.5 °F 30.17 in East 3.2 mph 5.8 mph 76% 0 in 0.00 W/m2
10:44 87.4 °F 79.3 °F 30.17 in ENE 3.9 mph 8.8 mph 77% 0 in 4.90 W/m2
10:49 87.8 °F 79.3 °F 30.17 in ENE 4.8 mph 8.1 mph 76% 0 in 4.90 W/m2
10:54 87.7 °F 78.8 °F 30.17 in ENE 5.1 mph 8.1 mph 75% 0 in 193.30 W/m2
10:59 87.1 °F 79 °F 30.17 in East 3.8 mph 5.8 mph 77% 0 in 0.00 W/m2
11:04 87.3 °F 78.4 °F 30.17 in ENE 5.7 mph 8.1 mph 75% 0 in 0.00 W/m2
11:09 87.1 °F 77.8 °F 30.17 in East 7.2 mph 8.8 mph 74% 0 in 0.00 W/m2
11:14 87.4 °F 77.7 °F 30.17 in East 3.3 mph 6.9 mph 73% 0 in 0.00 W/m2
11:19 88.4 °F 78.2 °F 30.17 in ESE 1.2 mph 3.5 mph 72% 0 in 0.00 W/m2
11:24 88.8 °F 77.7 °F 30.17 in SE 1.9 mph 2.3 mph 70% 0 in 193.30 W/m2
11:29 89.2 °F 78.1 °F 30.17 in ENE 2.7 mph 5.8 mph 70% 0 in 4.90 W/m2
11:34 89.4 °F 77 °F 30.17 in East 6 mph 8.1 mph 67% 0 in 0.00 W/m2
11:39 89.5 °F 78 °F 30.17 in East 2.3 mph 4.6 mph 69% 0 in 0.00 W/m2
11:44 89.9 °F 78.4 °F 30.17 in ENE 5.9 mph 5.8 mph 69% 0 in 0.00 W/m2
11:49 89.6 °F 77.6 °F 30.17 in NE 6.6 mph 7.7 mph 68% 0 in 0.00 W/m2
11:54 89.5 °F 77.1 °F 30.17 in NE 6.8 mph 9.2 mph 67% 0 in 0.00 W/m2
11:59 89.2 °F 76.8 °F 30.16 in ESE 0.7 mph 3.5 mph 67% 0 in 0.00 W/m2
12:04 89.5 °F 77.1 °F 30.16 in East 4 mph 5.8 mph 67% 0 in 0.00 W/m2
12:09 90.6 °F 76.3 °F 30.16 in ENE 2.5 mph 4.6 mph 63% 0 in 0.00 W/m2
12:14 89.7 °F 76.4 °F 30.16 in ENE 2.4 mph 5.8 mph 65% 0 in 0.00 W/m2
12:19 90 °F 76.6 °F 30.16 in East 7.2 mph 9.2 mph 65% 0 in 0.00 W/m2
12:24 90 °F 78 °F 30.15 in ENE 4.8 mph 6.6 mph 68% 0 in 0.00 W/m2
12:29 90.1 °F 77.2 °F 30.15 in SE 4.9 mph 6.9 mph 66% 0 in 0.00 W/m2
12:34 90.1 °F 77.2 °F 30.15 in NE 4.4 mph 8.1 mph 66% 0 in 0.00 W/m2
12:39 89 °F 77.5 °F 30.15 in ENE 3.2 mph 6.9 mph 69% 0 in 0.00 W/m2
12:44 89.7 °F 77.3 °F 30.15 in ENE 5.5 mph 6.9 mph 67% 0 in 0.00 W/m2
12:49 89.8 °F 76.5 °F 30.15 in ENE 3.4 mph 8.1 mph 65% 0 in 0.00 W/m2
12:54 90.3 °F 76.9 °F 30.14 in ENE 6.5 mph 5.8 mph 65% 0 in 0.00 W/m2
12:59 90.8 °F 77.9 °F 30.14 in NE 5.9 mph 8.8 mph 66% 0 in 0.00 W/m2
13:04 89.9 °F 76.6 °F 30.14 in East 3.3 mph 5.8 mph 65% 0 in 0.00 W/m2
13:09 89.8 °F 76.5 °F 30.15 in East 7.9 mph 8.1 mph 65% 0 in 0.00 W/m2
13:14 89.7 °F 76.4 °F 30.15 in ESE 5.2 mph 8.1 mph 65% 0 in 0.00 W/m2
13:19 90.7 °F 77.3 °F 30.14 in SE 3.1 mph 4.6 mph 65% 0 in 0.00 W/m2
13:24 91.6 °F 77.7 °F 30.14 in East 7 mph 9.2 mph 64% 0 in 0.00 W/m2
13:29 91 °F 77.1 °F 30.14 in East 1.8 mph 5.8 mph 64% 0 in 0.00 W/m2
13:34 90.2 °F 76.8 °F 30.14 in ENE 6.8 mph 8.1 mph 65% 0 in 0.00 W/m2
13:39 89.1 °F 77.2 °F 30.14 in ESE 9.1 mph 13.8 mph 68% 0 in 0.00 W/m2
13:44 85.9 °F 76.6 °F 30.15 in SE 7.6 mph 15 mph 74% 0 in 0.00 W/m2
13:49 84.7 °F 76.3 °F 30.15 in SSE 7.9 mph 10.4 mph 76% 0 in 0.00 W/m2
13:54 83.8 °F 76.2 °F 30.14 in SSE 7.5 mph 8.1 mph 78% 0 in 0.00 W/m2
13:59 84.1 °F 76.5 °F 30.14 in SW 3.9 mph 4.6 mph 78% 0 in 0.00 W/m2
14:04 84.6 °F 76.6 °F 30.14 in SE 3.9 mph 6.9 mph 77% 0 in 0.00 W/m2
14:09 84.8 °F 76.8 °F 30.14 in SSE 3.4 mph 4.6 mph 77% 0 in 0.00 W/m2
14:14 85.5 °F 76.7 °F 30.13 in SSW 4.2 mph 5.8 mph 75% 0 in 0.00 W/m2
14:19 87.4 °F 76.8 °F 30.13 in South 4.3 mph 6.9 mph 71% 0 in 0.00 W/m2
14:24 88.7 °F 77.2 °F 30.13 in South 6.8 mph 6.9 mph 69% 0 in 0.00 W/m2
14:29 89.8 °F 78.3 °F 30.13 in South 1.6 mph 4.6 mph 69% 0 in 0.00 W/m2
14:34 90.8 °F 77.9 °F 30.12 in SE 3.6 mph 6.6 mph 66% 0 in 0.00 W/m2
14:39 91.7 °F 77.3 °F 30.12 in SE 3 mph 5.8 mph 63% 0 in 0.00 W/m2
14:44 90.9 °F 78 °F 30.12 in ENE 2 mph 3.5 mph 66% 0 in 0.00 W/m2
14:49 91.7 °F 76.8 °F 30.12 in ESE 1.5 mph 6.9 mph 62% 0 in 0.00 W/m2
14:54 92.2 °F 77.3 °F 30.12 in ESE 3.6 mph 4.6 mph 62% 0 in 0.00 W/m2
14:59 91.7 °F 77.3 °F 30.12 in SE 5.7 mph 8.1 mph 63% 0 in 0.00 W/m2
15:04 92.1 °F 77.2 °F 30.12 in South 6.7 mph 6.9 mph 62% 0 in 0.00 W/m2
15:09 92.2 °F 77.8 °F 30.12 in SE 6.4 mph 8.1 mph 63% 0 in 0.00 W/m2
15:14 91.7 °F 78.3 °F 30.12 in SSE 7.5 mph 9.9 mph 65% 0 in 0.00 W/m2
15:19 91.3 °F 76.9 °F 30.11 in SSW 5.7 mph 6.6 mph 63% 0 in 0.00 W/m2
15:24 91.7 °F 78.7 °F 30.11 in South 4.8 mph 6.9 mph 66% 0 in 0.00 W/m2
15:29 91.9 °F 78 °F 30.11 in SW 4.6 mph 5.8 mph 64% 0 in 0.00 W/m2
15:34 91.7 °F 78.7 °F 30.11 in SW 3.4 mph 9.2 mph 66% 0 in 0.00 W/m2
15:39 91.6 °F 77.7 °F 30.11 in SSW 8 mph 9.2 mph 64% 0 in 0.00 W/m2
15:44 90.6 °F 77.7 °F 30.10 in SW 5.4 mph 9.2 mph 66% 0 in 0.00 W/m2
15:49 91.3 °F 77.4 °F 30.10 in WSW 5.8 mph 5.8 mph 64% 0 in 0.00 W/m2
15:54 91.7 °F 78.3 °F 30.10 in SSE 4 mph 5.8 mph 65% 0 in 0.00 W/m2
15:59 91 °F 76.7 °F 30.10 in SSE 10.3 mph 12.7 mph 63% 0 in 0.00 W/m2
16:04 89.3 °F 76.4 °F 30.11 in ESE 7.5 mph 13.2 mph 66% 0 in 0.00 W/m2
16:09 87.1 °F 77.4 °F 30.11 in East 4.9 mph 12.7 mph 73% 0 in 0.00 W/m2
16:14 85.7 °F 77.3 °F 30.10 in SSE 8.1 mph 11.5 mph 76% 0 in 0.00 W/m2
16:19 84.4 °F 77.9 °F 30.10 in SW 4.9 mph 6.9 mph 81% 0.033 in 0.00 W/m2
16:24 83.3 °F 77.2 °F 30.10 in SSW 5.6 mph 10.4 mph 82% 0.044 in 0.00 W/m2
16:29 82.4 °F 77.1 °F 30.10 in SSW 4.8 mph 5.8 mph 84% 0.044 in 0.00 W/m2
16:34 82.1 °F 76.8 °F 30.10 in SSW 4.2 mph 8.1 mph 84% 0.044 in 0.00 W/m2
16:39 82 °F 76.7 °F 30.10 in SSE 2.8 mph 4.6 mph 84% 0.044 in 0.00 W/m2
16:44 82.2 °F 76.9 °F 30.09 in SE 1.6 mph 2.3 mph 84% 0.044 in 0.00 W/m2
16:49 82.5 °F 77.2 °F 30.09 in South 2.8 mph 3.5 mph 84% 0.044 in 0.00 W/m2
16:54 83.6 °F 78.2 °F 30.09 in SSW 3.3 mph 3.5 mph 84% 0.044 in 0.00 W/m2
16:59 84.8 °F 78.3 °F 30.10 in SW 2.4 mph 3.3 mph 81% 0.044 in 0.00 W/m2
17:04 86.1 °F 78.8 °F 30.09 in SSW 2.1 mph 3.5 mph 79% 0.044 in 0.00 W/m2
17:09 87.4 °F 79.3 °F 30.09 in WSW 3.2 mph 4.4 mph 77% 0.044 in 0.00 W/m2
17:14 87.9 °F 78.2 °F 30.09 in SW 4.3 mph 5.8 mph 73% 0.044 in 0.00 W/m2
17:19 88 °F 77.4 °F 30.09 in SW 5.3 mph 6.9 mph 71% 0.011 in 0.00 W/m2
17:24 88.6 °F 78.4 °F 30.09 in SSE 2.8 mph 3.5 mph 72% 0 in 0.00 W/m2
17:29 89.1 °F 78.5 °F 30.09 in SSE 2 mph 2.3 mph 71% 0 in 0.00 W/m2
17:34 89.6 °F 78.9 °F 30.09 in SSE 3.1 mph 3.5 mph 71% 0 in 0.00 W/m2
17:39 89.8 °F 78.3 °F 30.09 in South 3.1 mph 4.4 mph 69% 0 in 0.00 W/m2
17:44 90.1 °F 78.6 °F 30.09 in SE 2.3 mph 3.5 mph 69% 0 in 0.00 W/m2
17:49 90.9 °F 79.3 °F 30.09 in SE 0.6 mph 1.1 mph 69% 0 in 0.00 W/m2
17:54 91.5 °F 78.5 °F 30.09 in SE 2.8 mph 3.5 mph 66% 0 in 0.00 W/m2
17:59 91 °F 78.1 °F 30.09 in SSE 1.5 mph 2.3 mph 66% 0 in 0.00 W/m2
18:04 90.9 °F 77.5 °F 30.09 in South 1.7 mph 3.5 mph 65% 0 in 0.00 W/m2
18:09 91 °F 77.6 °F 30.09 in Calm     65% 0 in 0.00 W/m2
18:14 91.7 °F 77.8 °F 30.09 in SSW 1.6 mph 3.5 mph 64% 0 in 0.00 W/m2
18:19 91.9 °F 78 °F 30.09 in ESE 4.3 mph 5.5 mph 64% 0 in 0.00 W/m2
18:24 91.2 °F 78.2 °F 30.10 in East 8 mph 11 mph 66% 0 in 0.00 W/m2
18:29 89.1 °F 75.8 °F 30.10 in East 9.4 mph 19.6 mph 65% 0 in 0.00 W/m2
18:34 86.7 °F 75.3 °F 30.10 in ESE 6.8 mph 12.7 mph 69% 0 in 0.00 W/m2
18:39 85 °F 75.4 °F 30.09 in ESE 6.6 mph 8.1 mph 73% 0 in 0.00 W/m2
18:44 84.4 °F 75.6 °F 30.09 in ENE 5.6 mph 6.9 mph 75% 0 in 0.00 W/m2
18:49 84.4 °F 76 °F 30.09 in ESE 4.3 mph 4.6 mph 76% 0 in 0.00 W/m2
18:54 84 °F 75.6 °F 30.09 in SE 3.5 mph 6.9 mph 76% 0 in 0.00 W/m2
18:59 83.9 °F 75.5 °F 30.09 in SE 2.5 mph 6.9 mph 76% 0 in 0.00 W/m2
19:04 83.7 °F 75.3 °F 30.09 in SSE 5.1 mph 5.8 mph 76% 0 in 0.00 W/m2
19:09 83.4 °F 75.8 °F 30.09 in South 2.2 mph 4.6 mph 78% 0 in 0.00 W/m2
19:14 83.2 °F 75.6 °F 30.09 in SE 1.5 mph 4.6 mph 78% 0 in 0.00 W/m2
19:19 83.1 °F 75.5 °F 30.09 in SE 0.3 mph 2.3 mph 78% 0 in 0.00 W/m2
19:24 83 °F 75.4 °F 30.09 in Calm     78% 0 in 0.00 W/m2
19:29 82.9 °F 75.3 °F 30.09 in Calm     78% 0 in 0.00 W/m2
19:34 82.9 °F 74.9 °F 30.09 in ENE 0.2 mph 1.1 mph 77% 0 in 0.00 W/m2
19:39 82.5 °F 75.3 °F 30.09 in Calm   1.2 mph 79% 0 in 0.00 W/m2
19:44 82.2 °F 75 °F 30.10 in Calm     79% 0 in 0.00 W/m2
19:49 82.1 °F 74.9 °F 30.10 in Calm     79% 0 in 0.00 W/m2
19:54 82.1 °F 74.9 °F 30.10 in Calm     79% 0 in 0.00 W/m2
19:59 82.2 °F 75.4 °F 30.10 in Calm   1.2 mph 80% 0 in 0.00 W/m2
20:04 82 °F 75.2 °F 30.09 in Calm     80% 0 in 0.00 W/m2
20:09 81.9 °F 75.5 °F 30.10 in Calm     81% 0 in 0.00 W/m2
20:14 81.5 °F 75.5 °F 30.10 in Calm     82% 0 in 0.00 W/m2
20:19 81.3 °F 75.6 °F 30.10 in Calm     83% 0 in 0.00 W/m2
20:24 81.4 °F 75.7 °F 30.11 in Calm     83% 0 in 0.00 W/m2
20:29 81.3 °F 75.6 °F 30.11 in Calm     83% 0 in 0.00 W/m2
20:34 81.2 °F 75.5 °F 30.11 in Calm     83% 0 in 0.00 W/m2
20:39 81 °F 75.7 °F 30.11 in Calm     84% 0 in 0.00 W/m2
20:44 81.1 °F 75.8 °F 30.11 in Calm   1.2 mph 84% 0 in 0.00 W/m2
20:49 81.1 °F 75.4 °F 30.11 in Calm     83% 0 in 0.00 W/m2
20:54 81.2 °F 75.5 °F 30.11 in Calm     83% 0 in 0.00 W/m2
20:59 81 °F 75.7 °F 30.11 in NE 0.1 mph 1.2 mph 84% 0 in 0.00 W/m2
21:04 80.8 °F 75.5 °F 30.11 in Calm     84% 0 in 0.00 W/m2
21:09 80.5 °F 75.6 °F 30.11 in Calm     85% 0 in 0.00 W/m2
Juneau County Weather
Compliments of Weather Underground - 3 mb